Time;durP1;ratioP1;P1;durP2;ratioP2;P2;SDS_P1;SDS_P2;PMS_P1;PMS_P2;Temp;Humidity;BMP_temperature;BMP_pressure;BME280_temperature;BME280_humidity;BME280_pressure;Samples;Min_cycle;Max_cycle;Signal;HPM_P1;HPM_P2
2022/08/20 00:00:17;;;;;;;17.38;2.45;;;;;;;;;;1036033;28;20033;-75
2022/08/20 00:00:52;;;;;;;10.77;1.88;;;;;;;;;;1036258;28;20068;-75
2022/08/20 00:01:23;;;;;;;12.65;3.03;;;;;;;;;;1035563;28;20022;-75
2022/08/20 00:01:53;;;;;;;9.30;1.52;;;;;;;;;;1035945;28;20124;-75
2022/08/20 00:02:24;;;;;;;4.75;2.13;;;;;;;;;;1035706;28;20157;-75
2022/08/20 00:02:56;;;;;;;5.13;1.92;;;;;;;;;;1035974;28;20517;-75
2022/08/20 00:03:29;;;;;;;15.32;1.67;;;;;;;;;;1036115;28;20022;-75
2022/08/20 00:04:00;;;;;;;6.63;1.63;;;;;;;;;;1036119;28;20026;-75
2022/08/20 00:04:30;;;;;;;16.05;1.50;;;;;;;;;;1036107;28;20029;-75
2022/08/20 00:05:01;;;;;;;3.15;1.38;;;;;;;;;;1033275;28;20030;-75
2022/08/20 00:05:33;;;;;;;13.15;3.05;;;;;;;;;;1031796;28;20554;-75
2022/08/20 00:06:09;;;;;;;5.22;2.25;;;;;;;;;;1031715;28;20026;-75
2022/08/20 00:06:39;;;;;;;12.00;2.75;;;;;;;;;;1031851;28;20121;-75
2022/08/20 00:07:11;;;;;;;7.13;1.58;;;;;;;;;;1031976;28;20037;-75
2022/08/20 00:07:41;;;;;;;9.63;1.90;;;;;;;;;;1032153;28;20494;-75
2022/08/20 00:08:13;;;;;;;9.73;1.67;;;;;;;;;;1031639;28;20034;-75
2022/08/20 00:08:44;;;;;;;4.15;1.58;;;;;;;;;;1031920;28;20034;-75
2022/08/20 00:09:15;;;;;;;10.93;1.55;;;;;;;;;;1027557;28;20025;-75
2022/08/20 00:09:45;;;;;;;16.20;1.45;;;;;;;;;;1024133;28;20042;-75
2022/08/20 00:10:16;;;;;;;12.05;1.65;;;;;;;;;;1027605;28;20023;-75
2022/08/20 00:10:47;;;;;;;16.58;1.52;;;;;;;;;;1028016;28;20104;-75
2022/08/20 00:11:20;;;;;;;8.85;1.30;;;;;;;;;;1031659;28;20030;-75
2022/08/20 00:11:50;;;;;;;6.30;1.27;;;;;;;;;;1032115;28;20022;-75
2022/08/20 00:12:21;;;;;;;3.72;1.23;;;;;;;;;;1031974;28;20030;-75
2022/08/20 00:12:52;;;;;;;11.07;2.17;;;;;;;;;;1031925;28;20034;-75
2022/08/20 00:13:24;;;;;;;15.88;1.55;;;;;;;;;;1031459;28;20025;-75
2022/08/20 00:13:57;;;;;;;10.18;2.30;;;;;;;;;;1031784;28;20034;-75
2022/08/20 00:14:28;;;;;;;9.20;1.30;;;;;;;;;;1031789;28;20451;-75
2022/08/20 00:14:58;;;;;;;6.68;1.55;;;;;;;;;;1031735;28;20036;-75
2022/08/20 00:15:31;;;;;;;15.02;1.60;;;;;;;;;;1031821;28;20499;-75
2022/08/20 00:16:01;;;;;;;6.82;1.77;;;;;;;;;;1032067;28;20022;-75
2022/08/20 00:16:33;;;;;;;15.38;1.92;;;;;;;;;;1032064;28;20030;-75
2022/08/20 00:17:04;;;;;;;10.60;1.73;;;;;;;;;;1031871;28;20042;-75
2022/08/20 00:17:37;;;;;;;12.63;1.45;;;;;;;;;;1031711;28;20030;-75
2022/08/20 00:18:08;;;;;;;8.38;1.52;;;;;;;;;;1031696;28;20073;-75
2022/08/20 00:18:40;;;;;;;3.33;1.83;;;;;;;;;;1031825;28;20432;-75
2022/08/20 00:19:10;;;;;;;16.95;1.65;;;;;;;;;;1031745;28;20026;-75
2022/08/20 00:19:41;;;;;;;11.93;1.38;;;;;;;;;;1031690;28;20030;-75
2022/08/20 00:20:12;;;;;;;14.55;1.63;;;;;;;;;;1031704;28;20034;-75
2022/08/20 00:20:44;;;;;;;10.05;1.67;;;;;;;;;;1031706;28;20026;-75
2022/08/20 00:21:16;;;;;;;13.80;1.63;;;;;;;;;;1031582;28;20022;-75
2022/08/20 00:21:46;;;;;;;1.85;0.85;;;;;;;;;;1031778;28;20125;-75
2022/08/20 00:22:17;;;;;;;5.95;1.38;;;;;;;;;;1031558;28;20486;-75
2022/08/20 00:22:48;;;;;;;10.50;2.13;;;;;;;;;;1032088;28;20117;-75
2022/08/20 00:23:19;;;;;;;11.60;2.60;;;;;;;;;;1031526;28;20029;-75
2022/08/20 00:23:51;;;;;;;19.75;2.83;;;;;;;;;;1031812;28;20041;-75
2022/08/20 00:24:22;;;;;;;8.32;2.15;;;;;;;;;;1031574;28;20022;-75
2022/08/20 00:24:53;;;;;;;5.68;1.42;;;;;;;;;;1031871;28;20085;-75
2022/08/20 00:25:25;;;;;;;10.88;2.15;;;;;;;;;;1031623;28;20030;-75
2022/08/20 00:25:55;;;;;;;7.28;1.52;;;;;;;;;;1032029;28;20169;-75
2022/08/20 00:26:26;;;;;;;5.07;2.65;;;;;;;;;;1032059;28;20081;-75
2022/08/20 00:26:56;;;;;;;8.10;2.15;;;;;;;;;;1031521;28;20034;-76
2022/08/20 00:27:27;;;;;;;5.38;1.02;;;;;;;;;;1027591;28;20562;-75
2022/08/20 00:27:58;;;;;;;11.95;1.52;;;;;;;;;;1027690;28;20030;-75
2022/08/20 00:28:28;;;;;;;6.47;1.58;;;;;;;;;;1027888;28;20030;-75
2022/08/20 00:28:59;;;;;;;16.55;2.53;;;;;;;;;;1031698;28;20117;-75
2022/08/20 00:29:30;;;;;;;9.35;1.60;;;;;;;;;;1032056;28;20097;-75
2022/08/20 00:30:01;;;;;;;12.60;1.80;;;;;;;;;;1031650;28;20124;-75
2022/08/20 00:30:33;;;;;;;12.38;2.13;;;;;;;;;;1031684;28;20027;-75
2022/08/20 00:31:04;;;;;;;24.65;1.70;;;;;;;;;;1031651;28;20034;-75
2022/08/20 00:31:35;;;;;;;7.07;1.88;;;;;;;;;;1031747;28;20121;-75
2022/08/20 00:32:05;;;;;;;18.85;2.53;;;;;;;;;;1031606;28;20026;-75
2022/08/20 00:32:43;;;;;;;16.98;2.50;;;;;;;;;;1031633;28;20113;-76
2022/08/20 00:33:16;;;;;;;21.60;2.42;;;;;;;;;;1031597;28;20030;-75
2022/08/20 00:33:47;;;;;;;19.13;2.65;;;;;;;;;;1031797;28;20466;-75
2022/08/20 00:34:18;;;;;;;22.20;3.08;;;;;;;;;;1031736;28;20031;-75
2022/08/20 00:34:48;;;;;;;12.95;2.20;;;;;;;;;;1032199;28;20398;-75
2022/08/20 00:35:21;;;;;;;18.05;2.67;;;;;;;;;;1031949;28;20026;-75
2022/08/20 00:35:55;;;;;;;10.13;2.22;;;;;;;;;;1032118;28;20077;-75
2022/08/20 00:36:25;;;;;;;15.75;2.30;;;;;;;;;;1032018;28;20034;-75
2022/08/20 00:36:56;;;;;;;8.48;1.52;;;;;;;;;;1031991;28;20115;-75
2022/08/20 00:37:26;;;;;;;8.98;2.65;;;;;;;;;;1031566;28;20508;-75
2022/08/20 00:37:57;;;;;;;9.52;2.08;;;;;;;;;;1031773;28;20084;-75
2022/08/20 00:38:28;;;;;;;4.32;1.67;;;;;;;;;;1031734;28;20026;-75
2022/08/20 00:38:59;;;;;;;7.50;2.10;;;;;;;;;;1031673;28;20116;-75
2022/08/20 00:39:29;;;;;;;8.65;1.95;;;;;;;;;;1031987;28;20466;-75
2022/08/20 00:40:00;;;;;;;9.10;1.63;;;;;;;;;;1031982;28;20030;-75
2022/08/20 00:40:34;;;;;;;12.55;1.95;;;;;;;;;;1032051;28;20030;-75
2022/08/20 00:41:05;;;;;;;4.75;2.42;;;;;;;;;;1031619;28;20494;-75
2022/08/20 00:41:36;;;;;;;14.70;2.28;;;;;;;;;;1031709;28;20034;-75
2022/08/20 00:42:07;;;;;;;8.38;2.00;;;;;;;;;;1031581;28;20033;-75
2022/08/20 00:42:45;;;;;;;6.00;2.80;;;;;;;;;;1031647;28;20066;-75
2022/08/20 00:43:31;;;;;;;14.30;2.28;;;;;;;;;;1031603;28;20033;-75
2022/08/20 00:44:07;;;;;;;14.70;1.98;;;;;;;;;;1031697;28;20027;-75
2022/08/20 00:44:43;;;;;;;11.63;2.13;;;;;;;;;;1031995;28;20114;-75
2022/08/20 00:45:15;;;;;;;9.98;1.55;;;;;;;;;;1031484;28;20112;-75
2022/08/20 00:45:45;;;;;;;6.95;1.25;;;;;;;;;;1031788;28;20084;-75
2022/08/20 00:46:22;;;;;;;11.50;1.73;;;;;;;;;;1031588;28;20532;-75
2022/08/20 00:46:53;;;;;;;7.22;2.33;;;;;;;;;;1031681;28;20068;-75
2022/08/20 00:47:23;;;;;;;19.00;1.65;;;;;;;;;;1031541;28;20031;-75
2022/08/20 00:47:54;;;;;;;7.13;1.42;;;;;;;;;;1031787;28;20437;-75
2022/08/20 00:48:27;;;;;;;4.75;1.17;;;;;;;;;;1031599;28;20541;-75
2022/08/20 00:48:59;;;;;;;4.47;1.13;;;;;;;;;;1031607;28;20038;-75
2022/08/20 00:49:30;;;;;;;7.30;1.45;;;;;;;;;;1031731;28;20034;-75
2022/08/20 00:50:01;;;;;;;17.80;3.55;;;;;;;;;;1031974;28;20027;-75
2022/08/20 00:50:33;;;;;;;23.73;3.08;;;;;;;;;;1031973;28;20061;-75
2022/08/20 00:51:13;;;;;;;14.00;1.33;;;;;;;;;;1031913;28;20030;-75
2022/08/20 00:51:51;;;;;;;18.77;2.33;;;;;;;;;;1032032;28;20494;-75
2022/08/20 00:52:22;;;;;;;15.63;1.98;;;;;;;;;;1031843;28;20034;-75
2022/08/20 00:52:53;;;;;;;12.45;1.60;;;;;;;;;;1031689;28;20451;-75
2022/08/20 00:53:25;;;;;;;10.55;1.85;;;;;;;;;;1031590;28;20030;-76
2022/08/20 00:54:00;;;;;;;7.38;1.80;;;;;;;;;;1031700;28;20553;-75
2022/08/20 00:54:34;;;;;;;5.78;1.77;;;;;;;;;;1031614;28;20033;-75
2022/08/20 00:55:05;;;;;;;16.10;1.95;;;;;;;;;;1027456;28;20386;-75
2022/08/20 00:55:36;;;;;;;10.55;3.17;;;;;;;;;;1027711;28;20027;-75
2022/08/20 00:56:07;;;;;;;7.53;1.90;;;;;;;;;;1028166;28;20094;-75
2022/08/20 00:56:38;;;;;;;2.40;1.42;;;;;;;;;;1027871;28;20081;-76
2022/08/20 00:57:10;;;;;;;13.13;1.83;;;;;;;;;;1031471;28;20030;-75
2022/08/20 00:57:46;;;;;;;13.70;1.98;;;;;;;;;;1031754;28;20471;-75
2022/08/20 00:58:17;;;;;;;10.57;1.52;;;;;;;;;;1031566;28;20022;-75
2022/08/20 00:58:49;;;;;;;6.53;1.50;;;;;;;;;;1031855;28;20122;-75
2022/08/20 00:59:22;;;;;;;21.65;2.45;;;;;;;;;;1031921;28;20041;-75
2022/08/20 00:59:52;;;;;;;13.07;2.03;;;;;;;;;;1036213;28;20029;-75
2022/08/20 01:00:27;;;;;;;16.13;1.98;;;;;;;;;;1035916;28;20397;-75
2022/08/20 01:00:58;;;;;;;4.40;1.20;;;;;;;;;;1036013;28;20030;-75
2022/08/20 01:01:33;;;;;;;18.98;2.30;;;;;;;;;;1036030;28;20034;-75
2022/08/20 01:02:06;;;;;;;18.13;2.97;;;;;;;;;;1035928;28;20037;-75
2022/08/20 01:02:37;;;;;;;6.82;1.08;;;;;;;;;;1036077;28;20537;-75
2022/08/20 01:03:08;;;;;;;9.30;1.38;;;;;;;;;;1035976;28;20036;-76
2022/08/20 01:03:41;;;;;;;19.98;3.78;;;;;;;;;;1035636;28;20403;-75
2022/08/20 01:04:11;;;;;;;11.23;1.90;;;;;;;;;;1035642;28;20026;-75
2022/08/20 01:04:51;;;;;;;25.33;2.45;;;;;;;;;;1035632;28;20014;-75
2022/08/20 01:05:22;;;;;;;10.70;1.85;;;;;;;;;;1027571;28;20027;-75
2022/08/20 01:05:53;;;;;;;6.43;1.73;;;;;;;;;;1027814;28;20125;-75
2022/08/20 01:06:23;;;;;;;4.35;1.92;;;;;;;;;;1027440;28;20049;-75
2022/08/20 01:06:54;;;;;;;14.45;2.15;;;;;;;;;;1023659;29;20090;-75
2022/08/20 01:07:33;;;;;;;12.77;1.70;;;;;;;;;;1023549;29;20046;-75
2022/08/20 01:08:04;;;;;;;7.57;1.30;;;;;;;;;;1024836;28;20039;-75
2022/08/20 01:08:34;;;;;;;13.25;1.27;;;;;;;;;;1027636;28;20542;-75
2022/08/20 01:09:05;;;;;;;12.38;2.13;;;;;;;;;;1027578;28;20069;-75
2022/08/20 01:09:36;;;;;;;4.30;1.67;;;;;;;;;;1027599;28;20023;-75
2022/08/20 01:10:12;;;;;;;10.40;2.45;;;;;;;;;;1027248;28;20117;-75
2022/08/20 01:10:44;;;;;;;6.78;1.80;;;;;;;;;;1024219;29;20023;-75
2022/08/20 01:11:21;;;;;;;8.15;1.58;;;;;;;;;;1027453;28;20085;-75
2022/08/20 01:11:52;;;;;;;6.43;1.48;;;;;;;;;;1027690;28;20031;-75
2022/08/20 01:12:24;;;;;;;11.00;2.05;;;;;;;;;;1027345;28;20523;-75
2022/08/20 01:12:56;;;;;;;8.35;1.92;;;;;;;;;;1027725;28;20043;-75
2022/08/20 01:13:27;;;;;;;19.90;2.83;;;;;;;;;;1027627;28;20031;-75
2022/08/20 01:13:58;;;;;;;5.85;1.65;;;;;;;;;;1027687;28;20486;-76
2022/08/20 01:15:08;;;;;;;3.90;2.10;;;;;;;;;;1027897;28;20031;-75
2022/08/20 01:15:40;;;;;;;4.55;1.25;;;;;;;;;;1027643;28;20507;-76
2022/08/20 01:16:25;;;;;;;16.33;2.47;;;;;;;;;;1027436;28;20046;-75
2022/08/20 01:16:59;;;;;;;12.80;2.05;;;;;;;;;;1027550;28;20031;-75
2022/08/20 01:17:33;;;;;;;11.25;1.50;;;;;;;;;;1027655;28;20027;-75
2022/08/20 01:18:05;;;;;;;11.13;1.42;;;;;;;;;;1027764;28;20022;-75
2022/08/20 01:18:35;;;;;;;13.75;1.63;;;;;;;;;;1027976;28;20035;-75
2022/08/20 01:19:08;;;;;;;8.52;1.80;;;;;;;;;;1027860;28;20109;-75
2022/08/20 01:20:00;;;;;;;5.03;1.35;;;;;;;;;;1027909;28;20085;-75
2022/08/20 01:20:35;;;;;;;5.05;1.50;;;;;;;;;;1027930;28;20563;-75
2022/08/20 01:21:06;;;;;;;15.85;1.92;;;;;;;;;;1027492;28;20027;-75
2022/08/20 01:21:37;;;;;;;6.13;2.53;;;;;;;;;;1027708;28;20030;-75
2022/08/20 01:23:56;;;;;;;10.10;2.20;;;;;;;;;;1031988;28;20441;-76
2022/08/20 01:24:33;;;;;;;7.65;3.17;;;;;;;;;;1032011;28;20030;-75
2022/08/20 01:25:08;;;;;;;5.05;1.70;;;;;;;;;;1032631;28;20391;-75
2022/08/20 01:25:39;;;;;;;17.10;2.10;;;;;;;;;;1032295;28;20026;-75
2022/08/20 01:26:27;;;;;;;7.45;1.95;;;;;;;;;;1032274;28;20022;-76
2022/08/20 01:26:59;;;;;;;13.07;1.65;;;;;;;;;;1028231;28;20114;-75
2022/08/20 01:27:31;;;;;;;12.20;2.55;;;;;;;;;;1030993;28;20062;-75
2022/08/20 01:28:01;;;;;;;7.15;2.03;;;;;;;;;;1028211;28;20026;-75
2022/08/20 01:28:36;;;;;;;8.68;2.05;;;;;;;;;;1028796;28;20166;-75
2022/08/20 01:29:13;;;;;;;2.88;1.48;;;;;;;;;;1028219;28;20113;-75
2022/08/20 01:29:43;;;;;;;4.30;1.42;;;;;;;;;;1029933;28;20054;-75
2022/08/20 01:30:14;;;;;;;14.18;2.30;;;;;;;;;;1032265;28;20413;-76
2022/08/20 01:30:44;;;;;;;10.65;1.50;;;;;;;;;;1032360;28;20033;-75
2022/08/20 01:31:17;;;;;;;5.35;1.45;;;;;;;;;;1032262;28;20026;-75
2022/08/20 01:31:48;;;;;;;11.57;2.83;;;;;;;;;;1032367;28;20021;-76
2022/08/20 01:32:19;;;;;;;16.85;2.30;;;;;;;;;;1032293;28;20038;-75
2022/08/20 01:32:49;;;;;;;5.45;2.13;;;;;;;;;;1032750;28;20035;-75
2022/08/20 01:33:21;;;;;;;9.85;2.08;;;;;;;;;;1032106;28;20494;-75
2022/08/20 01:33:52;;;;;;;13.57;2.67;;;;;;;;;;1032518;28;20124;-75
2022/08/20 01:34:23;;;;;;;24.20;3.63;;;;;;;;;;1032185;28;20037;-75
2022/08/20 01:34:53;;;;;;;14.30;2.78;;;;;;;;;;1032542;28;20030;-75
2022/08/20 01:35:24;;;;;;;8.38;2.08;;;;;;;;;;1032477;28;20026;-75
2022/08/20 01:35:55;;;;;;;13.55;1.77;;;;;;;;;;1032726;28;20029;-75
2022/08/20 01:36:30;;;;;;;13.30;2.47;;;;;;;;;;1032281;28;20033;-75
2022/08/20 01:37:01;;;;;;;9.45;1.95;;;;;;;;;;1032244;28;20093;-75
2022/08/20 01:37:31;;;;;;;5.43;1.50;;;;;;;;;;1032448;28;20045;-75
2022/08/20 01:38:02;;;;;;;7.68;1.58;;;;;;;;;;1032402;28;20034;-75
2022/08/20 01:38:34;;;;;;;5.97;1.90;;;;;;;;;;1032739;28;20061;-75
2022/08/20 01:39:07;;;;;;;5.93;2.40;;;;;;;;;;1032556;28;20026;-75
2022/08/20 01:39:38;;;;;;;12.63;1.90;;;;;;;;;;1032627;28;20033;-75
2022/08/20 01:40:11;;;;;;;9.70;2.03;;;;;;;;;;1032587;28;20022;-75
2022/08/20 01:40:59;;;;;;;10.52;1.85;;;;;;;;;;1032706;28;20549;-75
2022/08/20 01:41:29;;;;;;;11.93;2.08;;;;;;;;;;1032706;28;20113;-75
2022/08/20 01:42:18;;;;;;;10.68;2.88;;;;;;;;;;1032556;28;20034;-75
2022/08/20 01:42:49;;;;;;;9.65;2.33;;;;;;;;;;1032783;28;20467;-75
2022/08/20 01:43:20;;;;;;;19.38;3.88;;;;;;;;;;1032491;28;20058;-75
2022/08/20 01:43:55;;;;;;;20.10;4.82;;;;;;;;;;1032734;28;20038;-76
2022/08/20 01:44:27;;;;;;;14.88;1.63;;;;;;;;;;1032309;28;20034;-75
2022/08/20 01:44:57;;;;;;;8.40;1.92;;;;;;;;;;1032348;28;20364;-75
2022/08/20 01:45:29;;;;;;;9.07;2.20;;;;;;;;;;1032333;28;20026;-75
2022/08/20 01:46:00;;;;;;;13.02;2.80;;;;;;;;;;1032291;28;20070;-76
2022/08/20 01:46:37;;;;;;;8.25;1.85;;;;;;;;;;1032604;28;20374;-75
2022/08/20 01:47:18;;;;;;;10.98;2.03;;;;;;;;;;1032490;28;20034;-75
2022/08/20 01:47:49;;;;;;;22.52;2.28;;;;;;;;;;1032686;28;20465;-75
2022/08/20 01:48:20;;;;;;;18.52;1.60;;;;;;;;;;1032155;28;20097;-75
2022/08/20 01:48:51;;;;;;;6.65;1.80;;;;;;;;;;1032417;28;20022;-75
2022/08/20 01:49:24;;;;;;;10.20;2.13;;;;;;;;;;1032158;28;20124;-75
2022/08/20 01:49:55;;;;;;;12.43;2.17;;;;;;;;;;1032462;28;20026;-75
2022/08/20 01:50:27;;;;;;;12.30;2.72;;;;;;;;;;1032601;28;20037;-75
2022/08/20 01:51:06;;;;;;;10.13;2.15;;;;;;;;;;1032173;28;20515;-75
2022/08/20 01:51:37;;;;;;;11.35;1.60;;;;;;;;;;1032366;28;20030;-75
2022/08/20 01:52:08;;;;;;;8.40;1.55;;;;;;;;;;1032156;28;20026;-75
2022/08/20 01:52:41;;;;;;;14.98;2.53;;;;;;;;;;1032171;28;20066;-75
2022/08/20 01:53:25;;;;;;;13.65;3.00;;;;;;;;;;1032219;28;20021;-75
2022/08/20 01:53:58;;;;;;;12.38;2.70;;;;;;;;;;1032297;28;20411;-75
2022/08/20 01:54:31;;;;;;;21.73;2.33;;;;;;;;;;1032525;28;20018;-74
2022/08/20 01:55:03;;;;;;;12.48;2.13;;;;;;;;;;1032498;28;20022;-74
2022/08/20 01:55:33;;;;;;;5.35;2.17;;;;;;;;;;1032504;28;20113;-74
2022/08/20 01:56:06;;;;;;;7.65;1.95;;;;;;;;;;1032492;28;20030;-74
2022/08/20 01:56:49;;;;;;;16.25;2.75;;;;;;;;;;1032262;28;20045;-74
2022/08/20 01:57:25;;;;;;;10.52;1.58;;;;;;;;;;1032144;28;20121;-74
2022/08/20 01:57:56;;;;;;;6.20;1.67;;;;;;;;;;1032319;28;20073;-74
2022/08/20 01:58:28;;;;;;;15.43;1.98;;;;;;;;;;1032366;28;20545;-74
2022/08/20 01:59:00;;;;;;;7.57;1.65;;;;;;;;;;1032510;28;20114;-74
2022/08/20 01:59:31;;;;;;;13.65;1.67;;;;;;;;;;1033691;28;20020;-74
2022/08/20 02:00:04;;;;;;;14.95;1.73;;;;;;;;;;1036276;28;20037;-74
2022/08/20 02:00:35;;;;;;;5.90;2.00;;;;;;;;;;1036291;28;20056;-74
2022/08/20 02:01:06;;;;;;;5.30;1.75;;;;;;;;;;1036217;28;20521;-74
2022/08/20 02:01:38;;;;;;;6.57;2.38;;;;;;;;;;1036384;28;20026;-74
2022/08/20 02:02:10;;;;;;;8.48;1.80;;;;;;;;;;1036122;28;20116;-74
2022/08/20 02:02:40;;;;;;;3.20;1.52;;;;;;;;;;1036262;28;20036;-74
2022/08/20 02:03:11;;;;;;;14.23;1.83;;;;;;;;;;1036209;28;20041;-75
2022/08/20 02:03:42;;;;;;;8.00;1.80;;;;;;;;;;1036351;28;20160;-74
2022/08/20 02:04:13;;;;;;;15.15;3.60;;;;;;;;;;1036165;28;20033;-74
2022/08/20 02:04:43;;;;;;;3.60;1.45;;;;;;;;;;1036569;28;20033;-74
2022/08/20 02:05:14;;;;;;;4.13;1.60;;;;;;;;;;1032431;28;20398;-75
2022/08/20 02:05:44;;;;;;;9.18;2.08;;;;;;;;;;1032683;28;20533;-74
2022/08/20 02:06:16;;;;;;;6.80;1.83;;;;;;;;;;1032431;28;20060;-74
2022/08/20 02:06:48;;;;;;;11.15;1.40;;;;;;;;;;1032578;28;20038;-74
2022/08/20 02:07:20;;;;;;;8.00;1.67;;;;;;;;;;1032417;28;20058;-74
2022/08/20 02:07:51;;;;;;;10.10;1.75;;;;;;;;;;1032291;28;20537;-74
2022/08/20 02:08:21;;;;;;;5.22;1.45;;;;;;;;;;1032193;28;20022;-74
2022/08/20 02:08:54;;;;;;;13.40;1.73;;;;;;;;;;1032368;28;20030;-75
2022/08/20 02:09:29;;;;;;;7.35;1.80;;;;;;;;;;1032078;28;20030;-75
2022/08/20 02:09:59;;;;;;;10.18;2.72;;;;;;;;;;1032536;28;20026;-74
2022/08/20 02:10:31;;;;;;;11.60;2.22;;;;;;;;;;1032549;28;20027;-74
2022/08/20 02:11:01;;;;;;;7.07;1.33;;;;;;;;;;1032499;28;20475;-74
2022/08/20 02:11:33;;;;;;;4.82;1.38;;;;;;;;;;1032213;28;20053;-75
2022/08/20 02:12:05;;;;;;;9.10;1.25;;;;;;;;;;1032125;28;20042;-75
2022/08/20 02:12:35;;;;;;;5.80;1.98;;;;;;;;;;1032280;28;20018;-74
2022/08/20 02:13:08;;;;;;;6.80;1.50;;;;;;;;;;1032181;28;20141;-74
2022/08/20 02:13:39;;;;;;;9.02;2.03;;;;;;;;;;1032549;28;20069;-74
2022/08/20 02:14:10;;;;;;;10.48;2.25;;;;;;;;;;1032107;28;20096;-74
2022/08/20 02:14:42;;;;;;;3.17;1.30;;;;;;;;;;1032253;28;20037;-75
2022/08/20 02:15:12;;;;;;;10.10;2.25;;;;;;;;;;1032151;28;20097;-74
2022/08/20 02:15:43;;;;;;;6.88;1.65;;;;;;;;;;1032149;28;20018;-74
2022/08/20 02:16:14;;;;;;;3.97;1.52;;;;;;;;;;1032060;28;20026;-74
2022/08/20 02:16:49;;;;;;;2.67;0.98;;;;;;;;;;1032165;28;20029;-74
2022/08/20 02:17:21;;;;;;;3.72;2.10;;;;;;;;;;1032146;28;20034;-75
2022/08/20 02:17:52;;;;;;;9.27;1.33;;;;;;;;;;1032264;28;20050;-74
2022/08/20 02:18:22;;;;;;;12.43;2.20;;;;;;;;;;1032108;28;20391;-74
2022/08/20 02:18:57;;;;;;;5.50;1.38;;;;;;;;;;1032304;28;20034;-74
2022/08/20 02:19:39;;;;;;;4.63;1.55;;;;;;;;;;1032000;28;20038;-74
2022/08/20 02:20:11;;;;;;;8.00;1.33;;;;;;;;;;1032039;28;20030;-74
2022/08/20 02:20:43;;;;;;;7.32;1.15;;;;;;;;;;1032264;28;20029;-74
2022/08/20 02:21:13;;;;;;;4.80;1.00;;;;;;;;;;1032099;28;20406;-74
2022/08/20 02:21:45;;;;;;;12.02;2.10;;;;;;;;;;1032290;28;20081;-74
2022/08/20 02:22:36;;;;;;;14.55;1.88;;;;;;;;;;1032325;28;20417;-74
2022/08/20 02:23:07;;;;;;;12.00;1.38;;;;;;;;;;1032419;28;20029;-74
2022/08/20 02:23:37;;;;;;;5.18;2.10;;;;;;;;;;1032536;28;20030;-75
2022/08/20 02:24:08;;;;;;;14.52;2.08;;;;;;;;;;1032369;28;20120;-75
2022/08/20 02:24:39;;;;;;;7.47;2.22;;;;;;;;;;1032558;28;20105;-74
2022/08/20 02:25:10;;;;;;;7.95;1.45;;;;;;;;;;1032307;28;20026;-74
2022/08/20 02:25:42;;;;;;;4.55;1.65;;;;;;;;;;1032539;28;20030;-74
2022/08/20 02:26:13;;;;;;;9.68;1.88;;;;;;;;;;1032408;28;20026;-75
2022/08/20 02:26:44;;;;;;;15.50;2.50;;;;;;;;;;1032520;28;20518;-74
2022/08/20 02:27:15;;;;;;;12.02;1.90;;;;;;;;;;1032356;28;20057;-75
2022/08/20 02:27:47;;;;;;;12.45;3.33;;;;;;;;;;1032438;28;20050;-75
2022/08/20 02:28:19;;;;;;;14.63;1.60;;;;;;;;;;1031943;28;20565;-75
2022/08/20 02:28:50;;;;;;;16.23;3.75;;;;;;;;;;1032224;28;20029;-74
2022/08/20 02:29:21;;;;;;;5.20;1.45;;;;;;;;;;1032027;28;20018;-74
2022/08/20 02:29:52;;;;;;;4.38;1.85;;;;;;;;;;1032277;28;20492;-75
2022/08/20 02:30:26;;;;;;;8.27;1.63;;;;;;;;;;1032330;28;20053;-75
2022/08/20 02:30:57;;;;;;;9.27;2.45;;;;;;;;;;1032437;28;20041;-75
2022/08/20 02:31:27;;;;;;;12.73;2.30;;;;;;;;;;1032445;28;20065;-74
2022/08/20 02:31:58;;;;;;;6.88;1.48;;;;;;;;;;1032384;28;20022;-75
2022/08/20 02:32:28;;;;;;;12.27;1.88;;;;;;;;;;1032095;28;20030;-74
2022/08/20 02:33:00;;;;;;;4.13;1.42;;;;;;;;;;1032099;28;20053;-74
2022/08/20 02:33:30;;;;;;;9.75;1.58;;;;;;;;;;1028148;28;20038;-75
2022/08/20 02:34:03;;;;;;;5.28;1.92;;;;;;;;;;1028316;28;20030;-76
2022/08/20 02:34:34;;;;;;;9.35;2.13;;;;;;;;;;1032209;28;20081;-75
2022/08/20 02:35:07;;;;;;;5.20;1.95;;;;;;;;;;1032075;28;20418;-75
2022/08/20 02:35:39;;;;;;;9.15;1.10;;;;;;;;;;1032496;28;20428;-76
2022/08/20 02:36:11;;;;;;;3.92;1.55;;;;;;;;;;1031420;28;20026;-75
2022/08/20 02:36:42;;;;;;;5.43;1.67;;;;;;;;;;1031810;28;20026;-75
2022/08/20 02:37:17;;;;;;;8.43;1.67;;;;;;;;;;1027881;28;20019;-75
2022/08/20 02:37:47;;;;;;;7.60;1.70;;;;;;;;;;1028100;28;20031;-75
2022/08/20 02:38:18;;;;;;;5.38;0.95;;;;;;;;;;1024617;28;20027;-75
2022/08/20 02:38:49;;;;;;;5.97;1.80;;;;;;;;;;1028196;28;20042;-75
2022/08/20 02:39:19;;;;;;;10.68;1.67;;;;;;;;;;1028121;28;20034;-75
2022/08/20 02:39:50;;;;;;;4.57;1.58;;;;;;;;;;1028126;28;20538;-75
2022/08/20 02:40:21;;;;;;;7.68;2.35;;;;;;;;;;1032018;28;20514;-75
2022/08/20 02:40:51;;;;;;;9.38;2.28;;;;;;;;;;1032166;28;20038;-75
2022/08/20 02:41:22;;;;;;;9.27;1.50;;;;;;;;;;1031874;28;20101;-75
2022/08/20 02:41:53;;;;;;;10.57;1.40;;;;;;;;;;1032199;28;20063;-75
2022/08/20 02:42:23;;;;;;;15.27;1.48;;;;;;;;;;1031876;28;20074;-75
2022/08/20 02:42:54;;;;;;;10.05;2.28;;;;;;;;;;1032290;28;20402;-75
2022/08/20 02:43:25;;;;;;;10.57;1.92;;;;;;;;;;1031977;28;20502;-75
2022/08/20 02:43:55;;;;;;;4.78;1.65;;;;;;;;;;1032133;28;20375;-76
2022/08/20 02:44:26;;;;;;;3.50;1.60;;;;;;;;;;1031985;28;20026;-76
2022/08/20 02:44:57;;;;;;;7.47;1.83;;;;;;;;;;1032133;28;20532;-75
2022/08/20 02:45:28;;;;;;;7.78;1.77;;;;;;;;;;1032120;28;20125;-75
2022/08/20 02:45:59;;;;;;;7.82;1.20;;;;;;;;;;1031943;28;20033;-75
2022/08/20 02:46:30;;;;;;;3.55;1.75;;;;;;;;;;1032025;28;20490;-75
2022/08/20 02:47:00;;;;;;;2.45;1.15;;;;;;;;;;1032000;28;20030;-76
2022/08/20 02:47:31;;;;;;;7.55;1.45;;;;;;;;;;1032107;28;20445;-76
2022/08/20 02:48:02;;;;;;;5.30;1.20;;;;;;;;;;1032068;28;20030;-76
2022/08/20 02:48:34;;;;;;;3.83;1.13;;;;;;;;;;1032371;28;20035;-75
2022/08/20 02:49:04;;;;;;;3.47;1.42;;;;;;;;;;1032320;28;20030;-75
2022/08/20 02:49:35;;;;;;;10.40;1.42;;;;;;;;;;1032396;28;20383;-75
2022/08/20 02:50:06;;;;;;;6.00;1.63;;;;;;;;;;1031888;28;20068;-75
2022/08/20 02:50:41;;;;;;;3.97;1.60;;;;;;;;;;1032125;28;20031;-76
2022/08/20 02:51:11;;;;;;;8.93;1.50;;;;;;;;;;1031941;28;20053;-75
2022/08/20 02:51:42;;;;;;;1.75;0.70;;;;;;;;;;1032170;28;20049;-75
2022/08/20 02:52:13;;;;;;;7.50;1.10;;;;;;;;;;1031872;28;20030;-76
2022/08/20 02:52:43;;;;;;;4.95;1.02;;;;;;;;;;1032144;28;20026;-76
2022/08/20 02:53:15;;;;;;;7.43;1.27;;;;;;;;;;1031820;28;20506;-76
2022/08/20 02:53:46;;;;;;;14.23;0.73;;;;;;;;;;1032114;28;20117;-75
2022/08/20 02:54:16;;;;;;;11.05;1.95;;;;;;;;;;1027815;28;20050;-76
2022/08/20 02:54:49;;;;;;;3.67;1.15;;;;;;;;;;1028314;28;20022;-75
2022/08/20 02:55:20;;;;;;;10.20;1.25;;;;;;;;;;1031866;28;20092;-75
2022/08/20 02:55:50;;;;;;;4.85;1.60;;;;;;;;;;1032171;28;20027;-76
2022/08/20 02:56:21;;;;;;;3.58;1.23;;;;;;;;;;1031908;28;20022;-76
2022/08/20 02:56:51;;;;;;;3.60;1.00;;;;;;;;;;1032060;28;20534;-75
2022/08/20 02:57:22;;;;;;;2.17;1.02;;;;;;;;;;1031952;28;20471;-75
2022/08/20 02:57:53;;;;;;;6.88;1.83;;;;;;;;;;1032186;28;20144;-75
2022/08/20 02:58:24;;;;;;;10.00;1.48;;;;;;;;;;1031731;28;20081;-75
2022/08/20 02:58:55;;;;;;;3.55;1.00;;;;;;;;;;1032216;28;20510;-75
2022/08/20 02:59:25;;;;;;;5.43;1.85;;;;;;;;;;1032717;28;20022;-75
2022/08/20 02:59:56;;;;;;;6.53;1.33;;;;;;;;;;1036121;28;20030;-75
2022/08/20 03:00:29;;;;;;;4.78;1.13;;;;;;;;;;1036380;28;20069;-76
2022/08/20 03:01:00;;;;;;;7.20;1.73;;;;;;;;;;1036328;28;20026;-76
2022/08/20 03:01:31;;;;;;;12.18;1.17;;;;;;;;;;1036340;28;20116;-76
2022/08/20 03:02:01;;;;;;;4.82;1.50;;;;;;;;;;1036292;28;20029;-76
2022/08/20 03:02:32;;;;;;;1.58;0.93;;;;;;;;;;1036388;28;20033;-75
2022/08/20 03:03:03;;;;;;;8.90;1.10;;;;;;;;;;1036337;28;20113;-75
2022/08/20 03:03:33;;;;;;;12.75;1.77;;;;;;;;;;1035941;28;20108;-75
2022/08/20 03:04:04;;;;;;;5.13;0.98;;;;;;;;;;1035954;28;20121;-75
2022/08/20 03:04:35;;;;;;;8.40;2.63;;;;;;;;;;1036085;28;20056;-75
2022/08/20 03:05:06;;;;;;;5.88;1.50;;;;;;;;;;1032937;28;20014;-75
2022/08/20 03:05:37;;;;;;;7.70;1.52;;;;;;;;;;1032419;28;20418;-75
2022/08/20 03:06:09;;;;;;;6.20;1.77;;;;;;;;;;1031880;28;20125;-75
2022/08/20 03:06:39;;;;;;;6.20;1.83;;;;;;;;;;1027960;28;20027;-75
2022/08/20 03:07:11;;;;;;;12.02;1.25;;;;;;;;;;1027795;28;20023;-75
2022/08/20 03:07:42;;;;;;;6.88;1.52;;;;;;;;;;1028253;28;20022;-76
2022/08/20 03:08:13;;;;;;;11.52;1.00;;;;;;;;;;1031907;28;20060;-76
2022/08/20 03:08:44;;;;;;;16.92;1.55;;;;;;;;;;1032109;28;20037;-76
2022/08/20 03:09:14;;;;;;;12.52;1.52;;;;;;;;;;1028092;28;20022;-75
2022/08/20 03:09:45;;;;;;;5.75;1.38;;;;;;;;;;1032060;28;20030;-75
2022/08/20 03:10:16;;;;;;;4.25;1.05;;;;;;;;;;1031833;28;20517;-76
2022/08/20 03:10:46;;;;;;;2.58;0.70;;;;;;;;;;1028151;28;20018;-75
2022/08/20 03:11:17;;;;;;;7.88;1.38;;;;;;;;;;1031871;28;20121;-75
2022/08/20 03:11:48;;;;;;;4.75;1.02;;;;;;;;;;1032035;28;20128;-75
2022/08/20 03:12:19;;;;;;;5.60;0.80;;;;;;;;;;1031913;28;20410;-76
2022/08/20 03:12:49;;;;;;;8.50;1.50;;;;;;;;;;1032365;28;20030;-75
2022/08/20 03:13:20;;;;;;;7.45;1.60;;;;;;;;;;1031714;28;20041;-76
2022/08/20 03:13:51;;;;;;;2.75;0.90;;;;;;;;;;1032074;28;20101;-76